createdAt,value
2022-11-16T00:01:44.829Z,99764.91
2022-11-16T00:04:12.076Z,99777.56
2022-11-16T00:06:38.516Z,99780.41
2022-11-16T00:09:22.936Z,99772.09
2022-11-16T00:11:51.255Z,99773.50
2022-11-16T00:14:19.202Z,99774.78
2022-11-16T00:16:45.583Z,99766.69
2022-11-16T00:19:12.562Z,99775.00
2022-11-16T00:21:38.905Z,99771.25
2022-11-16T00:24:05.766Z,99770.19
2022-11-16T00:26:32.298Z,99767.06
2022-11-16T00:28:58.867Z,99769.19
2022-11-16T00:31:25.267Z,99762.59
2022-11-16T00:33:51.936Z,99765.06
2022-11-16T00:36:18.299Z,99759.44
2022-11-16T00:38:44.770Z,99762.13
2022-11-16T00:41:13.211Z,99769.38
2022-11-16T00:43:39.584Z,99767.50
2022-11-16T00:46:06.266Z,99762.50
2022-11-16T00:48:32.899Z,99759.22
2022-11-16T00:50:59.530Z,99759.22
2022-11-16T00:53:26.116Z,99753.81
2022-11-16T00:55:52.603Z,99759.22
2022-11-16T00:58:20.492Z,99758.03
2022-11-16T01:00:53.167Z,99751.56
2022-11-16T01:03:20.598Z,99746.56
2022-11-16T01:05:47.255Z,99746.19
2022-11-16T01:08:14.509Z,99740.19
2022-11-16T01:10:41.763Z,99745.75
2022-11-16T01:13:11.509Z,99739.06
2022-11-16T01:15:37.902Z,99743.63
2022-11-16T01:18:04.562Z,99748.81
2022-11-16T01:20:31.008Z,99746.44
2022-11-16T01:22:57.477Z,99736.72
2022-11-16T01:25:24.142Z,99734.84
2022-11-16T01:27:50.556Z,99730.88
2022-11-16T01:30:24.474Z,99732.97
2022-11-16T01:32:59.746Z,99732.16
2022-11-16T01:35:26.339Z,99733.91
2022-11-16T01:37:54.204Z,99729.69
2022-11-16T01:40:20.741Z,99732.16
2022-11-16T01:42:47.157Z,99731.94
2022-11-16T01:45:38.518Z,99742.25
2022-11-16T01:48:09.472Z,99744.94
2022-11-16T01:50:37.060Z,99740.59
2022-11-16T01:53:05.890Z,99735.66
2022-11-16T01:55:43.040Z,99738.53
2022-11-16T01:58:20.688Z,99735.00
2022-11-16T02:00:52.154Z,99736.66
2022-11-16T02:03:30.033Z,99721.97
2022-11-16T02:06:11.607Z,99727.94
2022-11-16T02:09:37.312Z,99729.63
2022-11-16T02:12:05.683Z,99723.28
2022-11-16T02:15:05.551Z,99717.44
2022-11-16T02:18:07.833Z,99716.63
2022-11-16T02:20:45.336Z,99712.31
2022-11-16T02:23:27.989Z,99719.09
2022-11-16T02:26:04.864Z,99724.34
2022-11-16T02:28:46.395Z,99714.16
2022-11-16T02:31:20.073Z,99719.53
2022-11-16T02:33:50.208Z,99727.41
2022-11-16T02:36:22.397Z,99725.69
2022-11-16T02:38:57.947Z,99722.53
2022-11-16T02:41:28.353Z,99726.06
2022-11-16T02:44:02.997Z,99729.81
2022-11-16T02:46:35.396Z,99730.31
2022-11-16T02:49:08.461Z,99731.50
2022-11-16T02:51:37.021Z,99732.56
2022-11-16T02:54:17.819Z,99729.88
2022-11-16T02:57:02.278Z,99736.72
2022-11-16T02:59:56.529Z,99735.91
2022-11-16T03:02:29.072Z,99727.34
2022-11-16T03:05:02.483Z,99720.66
2022-11-16T03:07:42.114Z,99730.03
2022-11-16T03:10:09.961Z,99723.25
2022-11-16T03:12:40.527Z,99717.41
2022-11-16T03:15:11.957Z,99721.13
2022-11-16T03:17:46.007Z,99714.47
2022-11-16T03:20:27.211Z,99721.94
2022-11-16T03:23:00.888Z,99717.84
2022-11-16T03:25:36.521Z,99719.47
2022-11-16T03:28:18.132Z,99722.19
2022-11-16T03:30:52.045Z,99717.41
2022-11-16T03:33:22.122Z,99715.72
2022-11-16T03:36:05.132Z,99730.28
2022-11-16T03:38:37.181Z,99722.41
2022-11-16T03:41:08.636Z,99725.13
2022-11-16T03:43:37.894Z,99741.09
2022-11-16T03:46:05.654Z,99731.25
2022-11-16T03:48:35.703Z,99738.28
2022-11-16T03:51:10.663Z,99714.63
2022-11-16T03:53:39.147Z,99718.72
2022-11-16T03:56:06.047Z,99732.81
2022-11-16T03:58:32.914Z,99731.75
2022-11-16T04:01:00.111Z,99734.03
2022-11-16T04:03:28.091Z,99735.91
2022-11-16T04:06:13.255Z,99735.91
2022-11-16T04:08:58.078Z,99738.34
2022-11-16T04:11:43.115Z,99747.06
2022-11-16T04:14:38.484Z,99744.34
2022-11-16T04:17:34.373Z,99747.25
2022-11-16T04:20:19.558Z,99746.69
2022-11-16T04:23:14.698Z,99744.41
2022-11-16T04:25:44.275Z,99736.19
2022-11-16T04:28:17.706Z,99746.75
2022-11-16T04:31:10.606Z,99741.97
2022-11-16T04:34:05.220Z,99749.00
2022-11-16T04:36:50.770Z,99747.34
2022-11-16T04:39:17.197Z,99746.50
2022-11-16T04:42:02.836Z,99746.75
2022-11-16T04:44:53.106Z,99759.97
2022-11-16T04:47:19.975Z,99771.81
2022-11-16T04:49:47.499Z,99772.50
2022-11-16T04:52:13.840Z,99764.66
2022-11-16T04:54:41.291Z,99772.13
2022-11-16T04:57:08.835Z,99771.91
2022-11-16T04:59:35.645Z,99759.72
2022-11-16T05:02:08.733Z,99760.78
2022-11-16T05:04:44.010Z,99754.31
2022-11-16T05:07:13.672Z,99761.81
2022-11-16T05:09:45.099Z,99762.50
2022-11-16T05:12:15.561Z,99750.66
2022-11-16T05:14:43.850Z,99760.25
2022-11-16T05:17:11.777Z,99751.94
2022-11-16T05:19:57.989Z,99755.91
2022-11-16T05:22:26.491Z,99748.88
2022-11-16T05:24:54.792Z,99759.66
2022-11-16T05:27:22.879Z,99759.91
2022-11-16T05:29:50.634Z,99757.22
2022-11-16T05:32:20.322Z,99765.06
2022-11-16T05:34:48.137Z,99759.28
2022-11-16T05:37:17.056Z,99769.25
2022-11-16T05:39:44.372Z,99775.91
2022-11-16T05:42:11.520Z,99775.09
2022-11-16T05:44:37.912Z,99781.78
2022-11-16T05:47:04.537Z,99778.47
2022-11-16T05:49:31.575Z,99784.47
2022-11-16T05:51:58.332Z,99784.91
2022-11-16T05:54:26.120Z,99785.97
2022-11-16T05:56:53.577Z,99789.03
2022-11-16T05:59:22.249Z,99780.28
2022-11-16T06:01:52.377Z,99781.09
2022-11-16T06:04:24.774Z,99787.16
2022-11-16T06:06:53.145Z,99786.88
2022-11-16T06:09:19.676Z,99789.56
2022-11-16T06:11:48.086Z,99789.09
2022-11-16T06:14:15.280Z,99783.31
2022-11-16T06:16:41.752Z,99784.81
2022-11-16T06:19:10.411Z,99792.91
2022-11-16T06:21:36.839Z,99789.19
2022-11-16T06:24:09.281Z,99790.00
2022-11-16T06:26:36.939Z,99783.19
2022-11-16T06:29:03.952Z,99789.38
2022-11-16T06:31:32.918Z,99791.25
2022-11-16T06:34:01.435Z,99796.66
2022-11-16T06:36:29.186Z,99798.28
2022-11-16T06:38:59.896Z,99795.22
2022-11-16T06:41:27.656Z,99793.44
2022-11-16T06:43:54.103Z,99797.75
2022-11-16T06:46:25.608Z,99801.66
2022-11-16T06:48:52.935Z,99792.16
2022-11-16T06:51:19.413Z,99804.06
2022-11-16T06:53:46.897Z,99802.22
2022-11-16T06:56:15.215Z,99796.69
2022-11-16T06:58:53.332Z,99806.41
2022-11-16T07:01:19.958Z,99808.06
2022-11-16T07:03:48.633Z,99814.50
2022-11-16T07:06:16.406Z,99813.09
2022-11-16T07:08:45.445Z,99808.13
2022-11-16T07:11:14.864Z,99812.09
2022-11-16T07:13:41.288Z,99808.34
2022-11-16T07:16:11.274Z,99810.44
2022-11-16T07:18:42.812Z,99811.09
2022-11-16T07:21:15.402Z,99820.28
2022-11-16T07:23:43.623Z,99828.78
2022-11-16T07:26:13.464Z,99828.34
2022-11-16T07:28:48.355Z,99836.00
2022-11-16T07:31:18.651Z,99837.00
2022-11-16T07:33:45.879Z,99848.25
2022-11-16T07:36:30.942Z,99850.75
2022-11-16T07:38:57.793Z,99850.19
2022-11-16T07:41:24.851Z,99854.75
2022-11-16T07:44:12.062Z,99856.84
2022-11-16T07:46:48.683Z,99870.34
2022-11-16T07:49:18.835Z,99875.75
2022-11-16T07:51:52.666Z,99876.41
2022-11-16T07:54:34.757Z,99875.63
2022-11-16T07:57:01.851Z,99879.97
2022-11-16T07:59:28.548Z,99882.00
2022-11-16T08:01:55.742Z,99881.75
2022-11-16T08:04:22.645Z,99889.78
2022-11-16T08:06:51.637Z,99890.81
2022-11-16T08:09:19.551Z,99890.56
2022-11-16T08:11:47.044Z,99894.06
2022-11-16T08:14:13.956Z,99892.03
2022-11-16T08:16:40.358Z,99896.59
2022-11-16T08:19:12.220Z,99905.72
2022-11-16T08:21:38.815Z,99895.53
2022-11-16T08:24:06.407Z,99900.75
2022-11-16T08:26:36.688Z,99897.88
2022-11-16T08:29:08.108Z,99905.06
2022-11-16T08:31:37.015Z,99898.84
2022-11-16T08:34:16.463Z,99899.44
2022-11-16T08:36:46.236Z,99896.59
2022-11-16T08:39:13.130Z,99906.31
2022-11-16T08:41:42.061Z,99901.63
2022-11-16T08:44:10.133Z,99907.19
2022-11-16T08:46:39.773Z,99913.22
2022-11-16T08:49:21.966Z,99908.03
2022-11-16T08:54:33.451Z,99902.63
2022-11-16T08:56:59.926Z,99911.91
2022-11-16T08:59:28.417Z,99912.69
2022-11-16T09:01:59.402Z,99910.00
2022-11-16T09:04:26.141Z,99911.22
2022-11-16T09:06:53.066Z,99911.16
2022-11-16T09:09:19.519Z,99898.34
2022-11-16T09:14:30.575Z,99907.06
2022-11-16T09:16:56.967Z,99905.53
2022-11-16T09:19:23.309Z,99919.16
2022-11-16T09:21:50.327Z,99909.00
2022-11-16T09:24:16.736Z,99894.94
2022-11-16T09:26:43.097Z,99895.53
2022-11-16T09:29:14.295Z,99893.19
2022-11-16T09:31:40.988Z,99895.22
2022-11-16T09:34:07.832Z,99900.91
2022-11-16T09:36:34.694Z,99902.09
2022-11-16T09:41:54.672Z,99905.16
2022-11-16T09:44:55.616Z,99911.16
2022-11-16T09:47:26.005Z,99913.06
2022-11-16T09:49:59.831Z,99922.00
2022-11-16T09:55:28.605Z,99915.75
2022-11-16T09:57:59.458Z,99923.41
2022-11-16T10:00:26.920Z,99925.03
2022-11-16T10:03:06.386Z,99924.22
2022-11-16T10:05:38.982Z,99936.66
2022-11-16T10:08:22.716Z,99928.47
2022-11-16T10:11:23.525Z,99940.91
2022-11-16T10:14:23.864Z,99935.09
2022-11-16T10:17:14.975Z,99934.81
2022-11-16T10:19:54.953Z,99937.47
2022-11-16T10:22:33.600Z,99934.00
2022-11-16T10:25:08.843Z,99937.78
2022-11-16T10:28:12.455Z,99937.34
2022-11-16T10:30:50.529Z,99932.91
2022-11-16T10:33:22.041Z,99929.94
2022-11-16T10:35:55.863Z,99927.25
2022-11-16T10:38:30.842Z,99920.31
2022-11-16T10:41:17.575Z,99926.25
2022-11-16T10:43:45.356Z,99919.22
2022-11-16T10:46:24.465Z,99923.91
2022-11-16T10:49:14.882Z,99923.91
2022-11-16T10:51:42.249Z,99915.47
2022-11-16T10:54:15.737Z,99918.44
2022-11-16T10:56:45.450Z,99921.13
2022-11-16T10:59:18.330Z,99915.16
2022-11-16T11:01:50.116Z,99918.16
2022-11-16T11:04:24.835Z,99912.78
2022-11-16T11:07:00.485Z,99913.72
2022-11-16T11:09:26.940Z,99911.38
2022-11-16T11:12:16.777Z,99903.72
2022-11-16T11:14:58.809Z,99907.56
2022-11-16T11:17:25.271Z,99902.75
2022-11-16T11:20:06.557Z,99901.06
2022-11-16T11:22:41.569Z,99903.53
2022-11-16T11:25:20.400Z,99907.50
2022-11-16T11:27:47.080Z,99909.66
2022-11-16T11:30:21.633Z,99904.63
2022-11-16T11:32:48.859Z,99905.94
2022-11-16T11:35:41.666Z,99896.88
2022-11-16T11:41:02.104Z,99892.69
2022-11-16T11:43:29.368Z,99895.31
2022-11-16T11:46:11.897Z,99888.66
2022-11-16T11:48:49.572Z,99887.97
2022-11-16T11:51:29.648Z,99885.66
2022-11-16T11:54:01.042Z,99890.91
2022-11-16T11:56:30.544Z,99893.59
2022-11-16T11:58:57.604Z,99894.81
2022-11-16T12:01:25.519Z,99883.41
2022-11-16T12:04:28.867Z,99883.59
2022-11-16T12:07:10.405Z,99893.16
2022-11-16T12:10:00.735Z,99891.50
2022-11-16T12:12:55.722Z,99894.81
2022-11-16T12:15:35.251Z,99899.00
2022-11-16T12:18:32.033Z,99899.00
2022-11-16T12:21:10.942Z,99908.88
2022-11-16T12:23:54.113Z,99898.31
2022-11-16T12:26:28.650Z,99897.34
2022-11-16T12:29:09.784Z,99895.97
2022-11-16T12:31:44.336Z,99886.78
2022-11-16T12:34:27.064Z,99890.25
2022-11-16T12:37:05.241Z,99883.13
2022-11-16T12:39:31.512Z,99883.50
2022-11-16T12:42:09.918Z,99876.47
2022-11-16T12:45:05.056Z,99868.00
2022-11-16T12:47:53.856Z,99862.16
2022-11-16T12:50:41.220Z,99869.22
2022-11-16T12:53:26.798Z,99870.59
2022-11-16T12:56:21.214Z,99859.44
2022-11-16T12:59:07.937Z,99866.84
2022-11-16T13:02:00.604Z,99860.53
2022-11-16T13:04:40.272Z,99857.16
2022-11-16T13:07:13.512Z,99862.59
2022-11-16T13:09:44.756Z,99857.44
2022-11-16T13:12:17.011Z,99855.94
2022-11-16T13:14:45.653Z,99851.69
2022-11-16T13:17:34.675Z,99860.28
2022-11-16T13:20:03.975Z,99852.94
2022-11-16T13:22:34.713Z,99853.31
2022-11-16T13:25:18.567Z,99842.47
2022-11-16T13:28:15.008Z,99849.44
2022-11-16T13:30:58.267Z,99851.97
2022-11-16T13:33:33.646Z,99841.47
2022-11-16T13:36:31.988Z,99854.81
2022-11-16T13:38:58.695Z,99851.91
2022-11-16T13:41:34.891Z,99858.19
2022-11-16T13:44:04.365Z,99853.84
2022-11-16T13:46:55.831Z,99852.50
2022-11-16T13:49:47.983Z,99841.56
2022-11-16T13:52:23.653Z,99845.22
2022-11-16T13:54:55.673Z,99841.09
2022-11-16T13:57:29.660Z,99836.78
2022-11-16T14:00:10.409Z,99815.44
2022-11-16T14:02:41.654Z,99822.53
2022-11-16T14:05:34.506Z,99825.78
2022-11-16T14:08:26.559Z,99818.50
2022-11-16T14:10:52.893Z,99824.34
2022-11-16T14:13:39.518Z,99825.41
2022-11-16T14:16:15.192Z,99819.72
2022-11-16T14:18:42.825Z,99823.22
2022-11-16T14:21:24.407Z,99816.50
2022-11-16T14:24:09.740Z,99814.63
2022-11-16T14:26:54.791Z,99810.63
2022-11-16T14:29:51.656Z,99813.13
2022-11-16T14:32:22.947Z,99812.38
2022-11-16T14:34:51.927Z,99805.41
2022-11-16T14:37:30.427Z,99803.34
2022-11-16T14:40:08.827Z,99804.97
2022-11-16T14:43:01.837Z,99797.69
2022-11-16T14:45:34.313Z,99790.44
2022-11-16T14:48:04.380Z,99790.69
2022-11-16T14:50:38.058Z,99788.88
2022-11-16T14:53:10.261Z,99791.13
2022-11-16T14:55:42.769Z,99790.06
2022-11-16T14:58:17.872Z,99781.16
2022-11-16T15:00:57.007Z,99771.19
2022-11-16T15:03:27.315Z,99768.75
2022-11-16T15:05:59.178Z,99765.06
2022-11-16T15:08:42.592Z,99769.88
2022-11-16T15:11:22.128Z,99771.59
2022-11-16T15:13:49.638Z,99761.66
2022-11-16T15:16:19.335Z,99762.47
2022-11-16T15:19:00.347Z,99750.88
2022-11-16T15:21:27.176Z,99755.88
2022-11-16T15:24:23.439Z,99751.31
2022-11-16T15:26:39.900Z,99745.56
2022-11-16T15:29:06.275Z,99736.50
2022-11-16T15:31:34.368Z,99741.28
2022-11-16T15:34:01.345Z,99737.78
2022-11-16T15:36:40.179Z,99738.81
2022-11-16T15:39:13.772Z,99735.53
2022-11-16T15:41:40.772Z,99728.72
2022-11-16T15:44:14.660Z,99713.97
2022-11-16T15:46:45.508Z,99714.41
2022-11-16T15:49:22.148Z,99697.75
2022-11-16T15:51:48.504Z,99707.69
2022-11-16T15:54:23.266Z,99702.63
2022-11-16T15:56:51.069Z,99707.41
2022-11-16T15:59:25.432Z,99700.97
2022-11-16T16:01:51.894Z,99696.78
2022-11-16T16:04:18.943Z,99697.03
2022-11-16T16:06:51.529Z,99698.41
2022-11-16T16:09:28.230Z,99689.09
2022-11-16T16:12:10.796Z,99677.94
2022-11-16T16:14:38.081Z,99674.13
2022-11-16T16:17:04.465Z,99673.59
2022-11-16T16:19:34.420Z,99681.91
2022-11-16T16:22:00.949Z,99691.38
2022-11-16T16:24:53.837Z,99684.38
2022-11-16T16:27:28.812Z,99678.78
2022-11-16T16:30:04.126Z,99682.88
2022-11-16T16:32:32.721Z,99683.41
2022-11-16T16:35:04.557Z,99671.44
2022-11-16T16:37:33.078Z,99678.31
2022-11-16T16:40:00.054Z,99678.31
2022-11-16T16:42:26.676Z,99675.38
2022-11-16T16:44:53.504Z,99670.69
2022-11-16T16:47:20.901Z,99668.59
2022-11-16T16:49:51.252Z,99675.91
2022-11-16T16:52:18.051Z,99662.66
2022-11-16T16:54:44.695Z,99661.47
2022-11-16T16:57:15.741Z,99664.75
2022-11-16T16:59:44.928Z,99656.53
2022-11-16T17:02:13.038Z,99660.34
2022-11-16T17:04:39.729Z,99658.69
2022-11-16T17:07:06.513Z,99660.78
2022-11-16T17:09:33.017Z,99660.63
2022-11-16T17:11:59.358Z,99657.75
2022-11-16T17:14:25.780Z,99653.81
2022-11-16T17:16:52.271Z,99659.56
2022-11-16T17:19:19.666Z,99656.88
2022-11-16T17:21:46.048Z,99652.31
2022-11-16T17:24:12.695Z,99656.66
2022-11-16T17:26:40.622Z,99657.47
2022-11-16T17:29:07.002Z,99663.69
2022-11-16T17:31:33.342Z,99662.28
2022-11-16T17:33:59.732Z,99662.13
2022-11-16T17:36:26.126Z,99654.69
2022-11-16T17:38:52.519Z,99652.44
2022-11-16T17:41:21.830Z,99648.53
2022-11-16T17:43:48.423Z,99647.91
2022-11-16T17:46:17.712Z,99638.44
2022-11-16T17:48:46.122Z,99632.44
2022-11-16T17:51:14.158Z,99633.28
2022-11-16T17:53:40.895Z,99628.41
2022-11-16T17:56:07.952Z,99629.84
2022-11-16T17:58:34.415Z,99634.38
2022-11-16T18:01:00.857Z,99627.19
2022-11-16T18:03:28.385Z,99622.63
2022-11-16T18:06:15.262Z,99620.19
2022-11-16T18:08:43.529Z,99625.56
2022-11-16T18:11:13.929Z,99621.03
2022-11-16T18:13:40.383Z,99614.03
2022-11-16T18:16:09.914Z,99612.16
2022-11-16T18:18:36.685Z,99618.19
2022-11-16T18:21:03.237Z,99618.63
2022-11-16T18:23:29.594Z,99623.63
2022-11-16T18:25:56.072Z,99622.97
2022-11-16T18:28:22.955Z,99628.16
2022-11-16T18:30:49.666Z,99620.94
2022-11-16T18:33:18.871Z,99623.63
2022-11-16T18:35:45.275Z,99620.22
2022-11-16T18:38:14.493Z,99611.94
2022-11-16T18:40:40.999Z,99605.31
2022-11-16T18:43:13.248Z,99600.81
2022-11-16T18:45:39.596Z,99597.78
2022-11-16T18:48:06.884Z,99589.97
2022-11-16T18:50:33.273Z,99580.22
2022-11-16T18:52:59.607Z,99588.09
2022-11-16T18:55:25.980Z,99584.78
2022-11-16T18:57:52.320Z,99577.78
2022-11-16T19:00:19.384Z,99574.03
2022-11-16T19:02:45.792Z,99567.03
2022-11-16T19:05:12.152Z,99572.25
2022-11-16T19:07:38.647Z,99565.06
2022-11-16T19:10:05.420Z,99552.38
2022-11-16T19:12:31.794Z,99539.34
2022-11-16T19:14:58.205Z,99532.09
2022-11-16T19:17:24.807Z,99534.63
2022-11-16T19:19:51.157Z,99527.53
2022-11-16T19:22:18.261Z,99527.31
2022-11-16T19:24:44.691Z,99518.44
2022-11-16T19:27:12.314Z,99506.28
2022-11-16T19:29:38.643Z,99507.00
2022-11-16T19:32:05.148Z,99494.63
2022-11-16T19:34:33.435Z,99497.75
2022-11-16T19:37:00.187Z,99498.59
2022-11-16T19:39:26.720Z,99477.91
2022-11-16T19:41:53.064Z,99473.66
2022-11-16T19:44:19.949Z,99462.53
2022-11-16T19:46:46.324Z,99469.09
2022-11-16T19:49:19.951Z,99463.34
2022-11-16T19:51:47.044Z,99457.16
2022-11-16T19:54:14.720Z,99454.22
2022-11-16T19:56:42.266Z,99449.47
2022-11-16T19:59:08.649Z,99437.91
2022-11-16T20:01:35.433Z,99427.88
2022-11-16T20:04:03.532Z,99419.47
2022-11-16T20:06:32.096Z,99422.97
2022-11-16T20:09:01.945Z,99414.69
2022-11-16T20:11:33.481Z,99409.94
2022-11-16T20:14:00.593Z,99400.19
2022-11-16T20:16:35.375Z,99404.56
2022-11-16T20:19:03.629Z,99401.50
2022-11-16T20:21:35.803Z,99394.63
2022-11-16T20:24:06.719Z,99387.97
2022-11-16T20:26:35.551Z,99379.75
2022-11-16T20:29:02.027Z,99379.53
2022-11-16T20:31:30.696Z,99376.50
2022-11-16T20:34:03.218Z,99372.50
2022-11-16T20:36:32.078Z,99382.69
2022-11-16T20:38:59.744Z,99381.19
2022-11-16T20:41:28.846Z,99371.63
2022-11-16T20:43:57.334Z,99361.91
2022-11-16T20:46:28.581Z,99367.50
2022-11-16T20:48:57.368Z,99357.00
2022-11-16T20:51:24.005Z,99348.94
2022-11-16T20:53:52.001Z,99340.63
2022-11-16T20:56:19.735Z,99340.88
2022-11-16T20:58:47.048Z,99338.19
2022-11-16T21:01:16.779Z,99337.13
2022-11-16T21:03:44.592Z,99337.00
2022-11-16T21:06:14.744Z,99329.22
2022-11-16T21:08:41.852Z,99324.28
2022-11-16T21:11:13.150Z,99319.16
2022-11-16T21:13:58.180Z,99312.50
2022-11-16T21:16:24.656Z,99302.78
2022-11-16T21:18:51.053Z,99286.81
2022-11-16T21:21:17.395Z,99282.50
2022-11-16T21:23:47.144Z,99268.34
2022-11-16T21:26:14.953Z,99266.66
2022-11-16T21:28:44.575Z,99263.31
2022-11-16T21:31:14.060Z,99266.66
2022-11-16T21:33:40.469Z,99265.16
2022-11-16T21:36:18.194Z,99257.47
2022-11-16T21:38:44.953Z,99253.75
2022-11-16T21:41:12.565Z,99247.78
2022-11-16T21:43:40.571Z,99249.19
2022-11-16T21:46:13.018Z,99238.22
2022-11-16T21:48:40.050Z,99218.94
2022-11-16T21:51:14.596Z,99228.75
2022-11-16T21:53:40.992Z,99215.09
2022-11-16T21:56:11.375Z,99212.53
2022-11-16T21:58:38.945Z,99198.03
2022-11-16T22:01:05.705Z,99198.50
2022-11-16T22:03:33.218Z,99193.13
2022-11-16T22:06:20.363Z,99176.06
2022-11-16T22:08:47.499Z,99180.97
2022-11-16T22:11:15.237Z,99170.81
2022-11-16T22:13:42.552Z,99161.91
2022-11-16T22:16:14.997Z,99150.59
2022-11-16T22:18:41.656Z,99156.78
2022-11-16T22:21:08.490Z,99143.09
2022-11-16T22:23:35.477Z,99141.25
2022-11-16T22:26:10.441Z,99132.13
2022-11-16T22:28:37.738Z,99118.69
2022-11-16T22:31:06.556Z,99110.28
2022-11-16T22:33:33.794Z,99103.84
2022-11-16T22:36:00.990Z,99098.81
2022-11-16T22:38:27.424Z,99091.81
2022-11-16T22:40:57.459Z,99075.69
2022-11-16T22:43:28.727Z,99076.50
2022-11-16T22:45:59.302Z,99054.19
2022-11-16T22:48:36.511Z,99052.91
2022-11-16T22:51:27.350Z,99050.81
2022-11-16T22:53:54.347Z,99039.81
2022-11-16T22:56:21.388Z,99041.34
2022-11-16T22:58:47.810Z,99035.75
2022-11-16T23:01:14.187Z,99031.75
2022-11-16T23:03:40.931Z,99027.06
2022-11-16T23:06:08.296Z,99020.78
2022-11-16T23:08:36.137Z,99007.34
2022-11-16T23:11:24.311Z,98997.16
2022-11-16T23:14:11.361Z,98984.78
2022-11-16T23:16:39.131Z,98986.56
2022-11-16T23:19:26.807Z,98976.03
2022-11-16T23:22:11.933Z,98981.28
2022-11-16T23:24:56.713Z,98978.00
2022-11-16T23:27:33.012Z,98955.25
2022-11-16T23:30:10.780Z,98963.41
2022-11-16T23:32:38.796Z,98947.06
2022-11-16T23:35:05.504Z,98938.41
2022-11-16T23:37:31.841Z,98928.03
2022-11-16T23:39:58.204Z,98913.66
2022-11-16T23:42:43.075Z,98912.03
2022-11-16T23:45:09.610Z,98895.69
2022-11-16T23:47:35.973Z,98883.78
2022-11-16T23:50:02.550Z,98867.06
2022-11-16T23:52:28.978Z,98858.09
2022-11-16T23:54:55.325Z,98849.13
2022-11-16T23:57:21.714Z,98847.94
2022-11-16T23:59:48.115Z,98838.72
